Weather reports worldwide

Advertisment
Hohenpeißenberg, Germany (10962): temperature & dewpoint: 19.09.2018 12:00:00 - 25.09.2018 12:00:00 (CEST)Hohenpeißenberg, Germany (10962): temperature 5cm & temperature -5cm: 19.09.2018 12:00:00 - 25.09.2018 12:00:00 (CEST)Hohenpeißenberg, Germany (10962): temperature -20cm & temperature -100cm: 19.09.2018 12:00:00 - 25.09.2018 12:00:00 (CEST)Hohenpeißenberg, Germany (10962): wind speed & gusts: 19.09.2018 12:00:00 - 25.09.2018 12:00:00 (CEST)Hohenpeißenberg, Germany (10962): wind direction: 19.09.2018 12:00:00 - 25.09.2018 12:00:00 (CEST)Hohenpeißenberg, Germany (10962): visibility: 19.09.2018 12:00:00 - 25.09.2018 12:00:00 (CEST)Hohenpeißenberg, Germany (10962): sunshine duration: 19.09.2018 12:00:00 - 25.09.2018 12:00:00 (CEST)Hohenpeißenberg, Germany (10962): precipitation: 19.09.2018 12:00:00 - 25.09.2018 12:00:00 (CEST)
Date & Time tt [°C] td [°C] tt 5cm [°C] tt -5cm [°C] tt -20cm [°C] tt -100cm [°C] ff [km/h] ff [kn] fx [km/h] fx [kn] dd vv [km] sd [min] rr [mm]
25.09.2018 12:00:00 - - - - - - - - - - - - - -
25.09.2018 11:00:00 4,5 2,5 7,3 9,1 10,2 16,2 12 6 22 12 NE 15 22 0,0
25.09.2018 10:00:00 3,8 2,5 5,6 7,2 10,2 16,2 14 8 21 11 NE 12 10 0,0
25.09.2018 09:00:00 3,0 1,9 3,6 5,9 10,4 16,2 16 9 26 14 NE 30 35 0,0
25.09.2018 08:00:00 2,6 0,8 2,4 5,5 10,6 16,2 16 8 20 11 NE 40 9 0,0
25.09.2018 07:00:00 3,9 0,7 2,4 5,6 10,9 16,3 9 5 11 6 E 30 0 0,0
25.09.2018 06:00:00 3,2 1,0 1,4 5,9 11,2 16,3 6 4 10 6 ENE 20 0 0,0
25.09.2018 05:00:00 3,4 0,9 2,1 6,2 11,4 16,3 9 5 23 12 NNE 15 0 0,0
25.09.2018 04:00:00 3,7 0,6 1,7 6,5 11,8 16,3 8 4 16 9 N 15 0 0,0
25.09.2018 03:00:00 4,4 0,2 2,3 6,8 12,1 16,3 8 4 14 7 W 45 0 0,0
25.09.2018 02:00:00 4,7 0,0 3,0 7,2 12,4 16,3 9 5 16 8 NW 45 0 0,0
25.09.2018 01:00:00 4,5 0,5 2,5 7,6 12,8 16,3 10 5 14 8 W 45 0 0,0
25.09.2018 00:00:00 4,8 0,2 3,1 8,1 13,2 16,3 10 6 14 8 W 45 0 0,0
24.09.2018 23:00:00 5,3 0,2 3,3 8,7 13,6 16,3 9 5 16 9 W 45 0 0,0
24.09.2018 22:00:00 5,4 0,2 4,0 9,4 14,0 16,3 11 6 18 10 NNW 40 0 0,0
24.09.2018 21:00:00 5,8 0,1 4,5 10,4 14,4 16,3 10 5 18 10 NNW 35 0 0,0
24.09.2018 20:00:00 6,1 -0,3 5,4 11,6 14,7 16,3 11 6 18 10 NNW 35 7 0,0
24.09.2018 19:00:00 6,6 -0,7 6,1 13,8 14,8 16,3 9 5 16 9 NNW 75 60 0,0
24.09.2018 18:00:00 7,8 -2,1 9,6 15,8 14,6 16,4 8 5 24 13 N 75 59 0,0
24.09.2018 17:00:00 8,9 -0,3 12,8 16,3 14,3 16,4 10 5 21 11 NNW 80 58 0,0
24.09.2018 16:00:00 9,2 -1,2 12,5 15,9 14,1 16,4 9 5 29 15 NW 80 42 0,0
24.09.2018 15:00:00 9,6 0,8 13,9 15,7 13,7 16,4 11 6 27 15 NW 45 43 0,0
24.09.2018 14:00:00 8,4 1,9 11,2 14,5 13,4 16,4 10 5 21 12 WNW 35 27 0,0
24.09.2018 13:00:00 7,6 2,5 9,3 13,6 13,1 16,4 11 6 22 12 W 27 23 0,0
24.09.2018 12:00:00 6,7 2,5 9,1 12,3 13,0 16,4 10 5 28 15 NW 19 29 0,0
24.09.2018 11:00:00 5,0 3,5 6,1 10,6 13,1 16,4 10 6 23 13 NNW 14 8 0,0
24.09.2018 10:00:00 4,0 3,7 4,9 9,8 13,3 16,4 9 5 24 13 NW 9 1 0,0
24.09.2018 09:00:00 3,7 3,7 4,2 9,4 13,5 16,4 13 7 29 15 N - 0 0,0
24.09.2018 08:00:00 3,8 3,8 4,3 9,7 13,8 16,4 16 8 28 15 N 0,2 0 0,0
24.09.2018 07:00:00 4,2 4,2 4,6 10,0 14,0 16,4 12 7 - - NNW 0,2 0 -
24.09.2018 06:00:00 4,8 4,8 - - - - - - - - - - 0 0,0
24.09.2018 05:00:00 4,8 4,8 - - - - - - - - - - 0 0,0
24.09.2018 04:00:00 6,2 6,2 - - - - - - - - - - 0 -
24.09.2018 03:00:00 7,7 7,7 - - - - - - - - - - 0 -
24.09.2018 02:00:00 8,5 8,5 - - - - - - - - - - - -
24.09.2018 01:00:00 9,9 9,9 - - - - - - - - - - - -
24.09.2018 00:00:00 10,5 10,5 - - - - - - - - - - 0 -
23.09.2018 23:00:00 11,1 11,1 - - - - - - - - - - - -
23.09.2018 22:00:00 13,8 12,5 - - - - 54 29 98 53 W 3,0 0 -
23.09.2018 21:00:00 19,3 13,3 18,6 16,7 17,1 16,5 51 27 81 44 WSW 60 0 0,0
23.09.2018 20:00:00 19,5 13,0 18,5 17,2 17,3 16,5 51 28 85 46 WSW 82 8 0,0
23.09.2018 19:00:00 20,0 13,1 19,0 18,2 17,3 16,5 51 28 87 47 WSW 82 60 0,0
23.09.2018 18:00:00 20,9 13,4 20,7 19,2 17,1 16,5 46 25 72 39 WSW 82 52 0,0
23.09.2018 17:00:00 21,3 13,9 22,1 20,4 16,8 16,5 37 20 66 36 WSW 50 55 0,0
23.09.2018 16:00:00 23,3 14,8 25,5 20,6 16,3 16,5 32 18 65 35 SW 60 57 0,0
23.09.2018 15:00:00 20,8 13,5 21,3 20,3 15,9 16,5 33 18 67 36 WSW 82 57 0,0
23.09.2018 14:00:00 21,7 13,7 22,7 19,4 15,4 16,5 34 18 68 37 WSW 82 60 0,0
23.09.2018 13:00:00 20,7 13,6 22,3 17,7 15,1 16,5 35 19 59 32 WSW 60 42 0,0
23.09.2018 12:00:00 17,8 12,9 18,1 16,1 14,8 16,5 42 23 72 39 WSW 40 8 0,0
23.09.2018 11:00:00 17,9 13,0 18,4 15,5 14,6 16,5 43 23 74 40 WSW 45 22 0,0
23.09.2018 10:00:00 16,3 13,1 15,7 14,3 14,5 16,5 49 26 74 40 SW 30 6 0,0
23.09.2018 09:00:00 14,9 12,5 14,4 13,5 14,4 16,5 42 23 64 35 WSW 35 5 0,0
23.09.2018 08:00:00 13,4 12,5 13,1 12,8 14,4 16,5 38 21 60 33 WSW 10 0 0,0
23.09.2018 07:00:00 12,5 12,1 12,3 12,4 14,5 16,5 37 20 54 29 WSW 12 0 0,2
23.09.2018 06:00:00 10,4 10,3 10,5 12,1 14,7 16,5 30 16 44 24 SW 12 0 0,4
23.09.2018 05:00:00 9,5 9,4 9,8 12,0 14,9 16,5 21 11 45 24 SW 0,1 0 3,0
23.09.2018 04:00:00 9,1 9,0 9,3 12,1 15,1 16,5 27 15 40 21 WSW 0,1 0 2,4
23.09.2018 03:00:00 8,8 8,5 8,9 12,3 15,3 16,5 22 12 39 21 W 0,1 0 0,7
23.09.2018 02:00:00 9,8 7,2 8,9 12,6 15,6 16,5 24 13 40 22 W 12 0 0,2
23.09.2018 01:00:00 10,1 7,3 9,0 13,0 15,8 16,5 26 14 56 31 W 15 0 0,6
23.09.2018 00:00:00 10,8 7,3 10,2 13,3 16,0 16,5 18 10 25 14 W 20 0 0,1
22.09.2018 23:00:00 9,9 7,1 9,4 13,7 16,3 16,5 16 9 24 13 SW 25 0 0,0
22.09.2018 22:00:00 10,1 7,1 9,4 14,2 16,5 16,5 13 7 19 10 SW 25 0 0,2
22.09.2018 21:00:00 11,0 6,5 10,4 14,8 16,8 16,5 12 7 16 9 W 30 0 0,0
22.09.2018 20:00:00 11,5 6,0 11,2 15,5 17,0 16,5 10 6 13 7 W 70 0 0,0
22.09.2018 19:00:00 10,9 6,1 10,2 16,6 17,0 16,5 9 5 14 8 WSW 75 16 0,0
22.09.2018 18:00:00 11,9 5,3 13,2 18,0 17,0 16,5 8 4 17 9 NW 75 60 0,0
22.09.2018 17:00:00 13,3 6,0 14,2 18,7 16,7 16,5 6 3 16 9 SSW 75 46 0,0
22.09.2018 16:00:00 12,7 5,4 14,3 19,6 16,4 16,5 12 6 22 12 WSW 75 54 0,0
22.09.2018 15:00:00 12,5 3,7 15,3 18,9 16,0 16,5 6 4 13 7 WSW 75 57 0,0
22.09.2018 14:00:00 12,4 5,4 15,0 17,6 15,7 16,5 8 4 15 8 W 55 24 0,0
22.09.2018 13:00:00 11,4 3,9 13,7 17,0 15,4 16,5 6 3 15 8 NW 60 23 0,0
22.09.2018 12:00:00 11,1 5,7 12,8 15,8 15,2 16,5 7 4 14 7 SSW 60 42 0,0
22.09.2018 11:00:00 10,3 6,1 11,3 14,3 15,2 16,5 6 3 14 8 SW 40 21 0,0
22.09.2018 10:00:00 9,2 6,4 9,7 13,1 15,2 16,5 8 5 17 9 W 35 59 0,0
22.09.2018 09:00:00 8,1 7,0 8,5 12,1 15,4 16,5 10 6 18 10 SW 30 19 0,0
22.09.2018 08:00:00 7,2 7,0 7,4 12,0 15,7 16,5 13 7 20 11 SSW 0,8 0 0,0
22.09.2018 07:00:00 7,2 6,9 7,3 12,5 15,9 16,5 13 7 20 11 W 0,1 0 0,0
22.09.2018 06:00:00 7,4 7,2 7,9 12,7 16,2 16,5 16 8 24 13 SW 0,1 0 0,0
22.09.2018 05:00:00 7,4 7,0 7,9 12,9 16,5 16,5 11 6 17 9 SW 30 0 0,0
22.09.2018 04:00:00 7,6 7,1 8,0 13,2 16,8 16,5 10 5 18 10 SSW 20 0 0,0
22.09.2018 03:00:00 7,8 7,4 8,2 13,5 17,1 16,5 10 5 24 13 SW 18 0 0,0
22.09.2018 02:00:00 7,7 7,0 7,8 13,9 17,5 16,5 12 7 28 15 W 18 0 0,2
22.09.2018 01:00:00 8,1 7,0 8,1 14,5 17,9 16,5 14 8 28 15 W 15 0 0,2
22.09.2018 00:00:00 8,6 7,7 8,8 15,2 18,3 16,5 18 10 37 20 W 12 0 1,1
21.09.2018 23:00:00 9,6 9,4 9,8 16,3 18,7 16,5 19 10 55 30 WNW 0,1 0 2,7
21.09.2018 22:00:00 11,8 11,6 12,1 17,8 18,9 16,5 22 12 45 25 N 0,1 0 2,5
21.09.2018 21:00:00 15,7 12,7 14,4 18,8 19,1 16,5 29 16 55 30 WSW 30 0 0,1
21.09.2018 20:00:00 17,7 12,0 17,1 19,7 19,2 16,5 31 17 57 31 WSW 30 0 0,0
21.09.2018 19:00:00 19,8 11,0 19,3 20,6 19,3 16,5 19 10 33 18 W 40 0 0,0
21.09.2018 18:00:00 20,6 11,0 20,1 21,6 19,2 16,5 14 8 23 13 WNW 50 0 0,0
21.09.2018 17:00:00 21,0 10,4 21,0 22,4 19,0 16,5 18 10 38 20 SW 60 5 0,0
21.09.2018 16:00:00 21,7 10,2 21,9 23,4 18,6 16,5 20 11 42 23 WSW 82 28 0,0
21.09.2018 15:00:00 23,6 9,4 26,3 23,7 18,1 16,5 22 12 45 24 W 82 60 0,0
21.09.2018 14:00:00 24,1 9,7 26,1 22,7 17,6 16,5 28 15 46 25 WSW 82 49 0,0
21.09.2018 13:00:00 22,1 9,9 23,1 21,8 17,1 16,5 28 15 50 27 WSW 82 58 0,0
21.09.2018 12:00:00 22,6 11,9 25,3 19,8 16,8 16,4 21 11 38 20 SW 82 60 0,0
21.09.2018 11:00:00 20,5 11,0 22,1 17,7 16,6 16,4 24 13 40 22 WSW 82 60 0,0
21.09.2018 10:00:00 19,3 8,4 19,7 16,1 16,6 16,4 22 12 32 17 SW 82 60 0,0
21.09.2018 09:00:00 18,4 7,4 17,9 15,3 16,7 16,4 16 9 25 14 SW 82 60 0,0
21.09.2018 08:00:00 17,7 7,4 16,4 14,4 16,9 16,4 15 8 20 11 SW 82 32 0,0
21.09.2018 07:00:00 17,3 7,8 14,3 14,6 17,2 16,4 9 5 18 10 SSW 82 0 0,0
21.09.2018 06:00:00 18,2 8,0 15,8 14,9 17,4 16,4 16 9 23 12 WSW 80 0 0,0
21.09.2018 05:00:00 17,0 9,7 14,5 15,1 17,7 16,4 11 6 14 8 S 60 0 0,0
21.09.2018 04:00:00 17,8 10,7 14,8 15,5 17,9 16,4 10 6 14 8 SW 60 0 0,0
21.09.2018 03:00:00 17,5 10,7 14,6 15,9 18,2 16,4 9 5 12 7 SSW 70 0 0,0
21.09.2018 02:00:00 17,0 10,9 13,4 16,3 18,5 16,4 11 6 13 7 SW 80 0 0,0
21.09.2018 01:00:00 18,2 10,4 14,8 16,9 18,9 16,4 4 2 7 4 SSE 70 0 0,0
21.09.2018 00:00:00 19,7 9,5 16,4 17,5 19,2 16,4 7 4 11 6 SE 80 0 0,0
20.09.2018 23:00:00 19,4 10,3 16,9 18,2 19,5 16,4 10 5 20 11 ESE 50 0 0,0
20.09.2018 22:00:00 19,2 11,2 17,8 19,0 19,8 16,4 16 9 22 12 E 50 0 0,0
20.09.2018 21:00:00 19,3 12,3 18,0 19,9 20,1 16,4 15 8 20 11 E 60 0 0,0
20.09.2018 20:00:00 19,8 11,4 18,0 21,1 20,3 16,4 11 6 18 10 E 60 15 0,0
20.09.2018 19:00:00 20,6 11,1 19,6 22,8 20,3 16,4 8 4 10 5 ENE 82 60 0,0
20.09.2018 18:00:00 21,5 9,8 22,5 24,6 20,1 16,4 7 4 13 7 ENE 70 60 0,0
20.09.2018 17:00:00 22,1 10,2 24,5 25,8 19,6 16,4 8 4 12 7 NE 70 60 0,0
20.09.2018 16:00:00 21,9 9,6 24,8 26,3 19,1 16,4 10 6 16 9 NNE 70 60 0,0
20.09.2018 15:00:00 22,1 11,3 26,1 26,3 18,4 16,4 10 6 18 10 NNE 70 60 0,0
20.09.2018 14:00:00 21,6 11,2 26,1 25,6 17,7 16,4 10 5 14 8 N 70 60 0,0
20.09.2018 13:00:00 22,6 11,8 25,7 24,0 17,0 16,4 5 3 15 8 ESE 82 60 0,0
20.09.2018 12:00:00 21,2 10,3 24,6 21,9 16,5 16,4 5 3 11 6 SE 82 60 0,0
20.09.2018 11:00:00 21,8 12,0 23,0 19,2 16,2 16,4 3 1 9 5 SSE 82 60 0,0
20.09.2018 10:00:00 19,3 9,2 19,7 16,6 16,1 16,4 6 3 8 5 SW 82 60 0,0
20.09.2018 09:00:00 18,7 9,1 18,4 14,7 16,1 16,4 6 3 10 5 WSW 82 60 0,0
20.09.2018 08:00:00 16,3 9,9 14,8 13,7 16,3 16,4 6 3 10 6 S 82 31 0,0
20.09.2018 07:00:00 16,3 10,0 12,7 13,9 16,6 16,4 4 2 5 3 S 82 0 0,0
20.09.2018 06:00:00 17,2 10,1 13,9 14,1 16,8 16,4 5 3 11 6 WSW 82 0 0,0
20.09.2018 05:00:00 17,5 10,0 14,4 14,4 17,0 16,4 6 3 13 7 SSW 82 0 0,0
20.09.2018 04:00:00 16,4 10,3 14,2 14,7 17,3 16,4 9 5 14 7 SSW 82 0 0,0
20.09.2018 03:00:00 16,9 10,3 14,5 15,1 17,6 16,4 9 5 11 6 SSW 82 0 0,0
20.09.2018 02:00:00 16,9 10,5 14,3 15,5 17,9 16,4 9 5 11 6 SSW 82 0 0,0
20.09.2018 01:00:00 16,6 10,9 14,5 16,0 18,2 16,4 9 5 11 6 S 82 0 0,0
20.09.2018 00:00:00 17,2 11,2 14,6 16,6 18,5 16,4 7 4 13 7 S 82 0 0,0
19.09.2018 23:00:00 17,6 11,8 14,9 17,2 18,9 16,4 12 6 16 9 SE 82 0 0,0
19.09.2018 22:00:00 18,2 12,3 16,3 18,0 19,2 16,4 12 6 17 9 ESE 80 0 0,0
19.09.2018 21:00:00 19,0 12,6 17,2 18,8 19,5 16,4 10 5 14 8 E 80 0 0,0
19.09.2018 20:00:00 18,9 10,9 16,9 20,0 19,7 16,4 12 7 14 8 NE 80 11 0,0
19.09.2018 19:00:00 19,4 11,4 18,6 21,9 19,7 16,4 10 5 13 7 NE 70 60 0,0
19.09.2018 18:00:00 20,7 10,7 22,7 23,8 19,5 16,4 9 5 13 7 N 70 60 0,0
19.09.2018 17:00:00 21,8 11,0 24,6 24,9 19,1 16,4 6 4 14 8 N 70 60 0,0
19.09.2018 16:00:00 22,0 9,7 25,2 25,2 18,6 16,4 8 4 14 8 WNW 70 60 0,0
19.09.2018 15:00:00 23,1 10,5 25,7 24,6 18,1 16,4 7 4 16 9 NW 70 49 0,0
19.09.2018 14:00:00 21,5 10,3 24,4 24,2 17,4 16,4 7 4 16 9 W 70 55 0,0
19.09.2018 13:00:00 21,4 12,3 24,5 23,2 16,8 16,4 6 4 15 8 SW 70 60 0,0
19.09.2018 12:00:00 20,5 10,9 24,0 21,5 16,2 16,4 4 2 11 6 NNW 80 60 0,0

tt = temperature
td = dewpoint
tt 5cm = temperature 5cm
tt -5cm = temperature -5cm
tt -20cm = temperature -20cm
tt -100cm = temperature -100cm
ff = wind speed
fx = gusts
dd = wind direction
vv = visibility
sd = sunshine duration
rr = precipitation

Next stations